createdAt,value
2022-11-08T00:00:44.571Z,624.63
2022-11-08T00:03:12.316Z,627.22
2022-11-08T00:05:57.776Z,630.30
2022-11-08T00:08:43.033Z,627.10
2022-11-08T00:11:28.382Z,629.22
2022-11-08T00:13:58.479Z,620.85
2022-11-08T00:16:25.870Z,621.47
2022-11-08T00:18:52.606Z,624.13
2022-11-08T00:21:19.253Z,622.92
2022-11-08T00:23:45.986Z,624.13
2022-11-08T00:26:12.670Z,624.83
2022-11-08T00:28:39.281Z,626.43
2022-11-08T00:31:06.670Z,623.33
2022-11-08T00:33:33.372Z,621.92
2022-11-08T00:36:00.520Z,631.10
2022-11-08T00:38:27.179Z,630.35
2022-11-08T00:40:55.558Z,631.65
2022-11-08T00:43:22.196Z,628.47
2022-11-08T00:45:48.782Z,629.65
2022-11-08T00:48:15.682Z,632.13
2022-11-08T00:50:42.553Z,627.80
2022-11-08T00:53:09.131Z,634.10
2022-11-08T00:55:35.704Z,632.13
2022-11-08T00:58:02.287Z,627.92
2022-11-08T01:00:28.839Z,632.03
2022-11-08T01:03:16.887Z,628.80
2022-11-08T01:05:43.580Z,625.92
2022-11-08T01:08:11.724Z,626.58
2022-11-08T01:10:42.758Z,634.85
2022-11-08T01:13:10.125Z,629.45
2022-11-08T01:15:40.492Z,631.47
2022-11-08T01:18:07.945Z,632.75
2022-11-08T01:20:39.210Z,630.90
2022-11-08T01:23:05.797Z,624.80
2022-11-08T01:25:37.168Z,627.05
2022-11-08T01:28:04.250Z,626.20
2022-11-08T01:30:30.887Z,622.93
2022-11-08T01:32:57.410Z,631.95
2022-11-08T01:35:23.996Z,622.83
2022-11-08T01:37:52.537Z,622.78
2022-11-08T01:40:19.163Z,632.13
2022-11-08T01:42:45.725Z,630.08
2022-11-08T01:45:13.000Z,636.58
2022-11-08T01:47:39.603Z,632.97
2022-11-08T01:50:12.528Z,633.75
2022-11-08T01:52:47.787Z,631.42
2022-11-08T01:55:28.202Z,639.43
2022-11-08T01:58:10.830Z,633.42
2022-11-08T02:00:39.289Z,639.35
2022-11-08T02:03:09.361Z,633.83
2022-11-08T02:05:36.104Z,633.80
2022-11-08T02:08:13.216Z,645.83
2022-11-08T02:10:43.168Z,638.15
2022-11-08T02:13:15.092Z,643.55
2022-11-08T02:15:42.614Z,641.33
2022-11-08T02:18:09.658Z,646.30
2022-11-08T02:20:36.632Z,646.50
2022-11-08T02:23:14.593Z,642.83
2022-11-08T02:25:41.236Z,641.03
2022-11-08T02:28:07.780Z,645.10
2022-11-08T02:30:38.817Z,641.37
2022-11-08T02:33:18.662Z,640.65
2022-11-08T02:35:49.294Z,636.53
2022-11-08T02:38:17.681Z,636.53
2022-11-08T02:40:49.160Z,640.60
2022-11-08T02:43:19.515Z,638.03
2022-11-08T02:45:46.375Z,638.95
2022-11-08T02:48:13.664Z,636.20
2022-11-08T02:50:40.954Z,638.92
2022-11-08T02:53:08.092Z,630.47
2022-11-08T02:55:35.249Z,633.38
2022-11-08T02:58:02.817Z,636.75
2022-11-08T03:00:29.789Z,630.17
2022-11-08T03:02:57.691Z,633.70
2022-11-08T03:05:26.445Z,633.83
2022-11-08T03:07:56.675Z,643.33
2022-11-08T03:10:27.347Z,649.15
2022-11-08T03:12:58.355Z,662.00
2022-11-08T03:15:25.756Z,641.72
2022-11-08T03:17:52.378Z,644.45
2022-11-08T03:20:19.386Z,640.70
2022-11-08T03:22:46.984Z,640.55
2022-11-08T03:25:13.972Z,634.38
2022-11-08T03:27:40.646Z,639.50
2022-11-08T03:30:07.895Z,633.55
2022-11-08T03:32:34.438Z,638.80
2022-11-08T03:35:01.035Z,632.17
2022-11-08T03:37:27.684Z,624.28
2022-11-08T03:39:54.323Z,627.50
2022-11-08T03:42:20.943Z,635.13
2022-11-08T03:44:47.491Z,632.85
2022-11-08T03:47:14.048Z,628.78
2022-11-08T03:49:40.550Z,635.63
2022-11-08T03:52:07.186Z,632.90
2022-11-08T03:54:33.813Z,634.78
2022-11-08T03:57:00.397Z,630.30
2022-11-08T03:59:26.934Z,629.93
2022-11-08T04:01:53.704Z,633.55
2022-11-08T04:04:20.454Z,627.30
2022-11-08T04:06:47.056Z,634.47
2022-11-08T04:09:16.457Z,633.97
2022-11-08T04:12:04.670Z,635.60
2022-11-08T04:14:49.584Z,634.58
2022-11-08T04:17:16.236Z,630.67
2022-11-08T04:20:01.009Z,620.57
2022-11-08T04:22:27.603Z,625.43
2022-11-08T04:24:54.247Z,638.35
2022-11-08T04:27:20.906Z,637.92
2022-11-08T04:29:47.560Z,632.97
2022-11-08T04:32:14.336Z,628.40
2022-11-08T04:34:40.960Z,630.78
2022-11-08T04:37:07.631Z,638.47
2022-11-08T04:39:35.608Z,632.17
2022-11-08T04:42:02.845Z,632.53
2022-11-08T04:44:29.538Z,638.92
2022-11-08T04:46:57.242Z,635.77
2022-11-08T04:49:23.813Z,638.30
2022-11-08T04:51:50.533Z,635.92
2022-11-08T04:54:17.209Z,638.92
2022-11-08T04:56:43.835Z,641.55
2022-11-08T04:59:12.097Z,639.88
2022-11-08T05:01:39.039Z,644.78
2022-11-08T05:04:05.835Z,626.03
2022-11-08T05:06:32.842Z,626.95
2022-11-08T05:09:00.322Z,626.50
2022-11-08T05:11:28.948Z,628.20
2022-11-08T05:13:56.316Z,626.92
2022-11-08T05:16:30.946Z,628.22
2022-11-08T05:18:58.285Z,630.95
2022-11-08T05:21:43.898Z,630.08
2022-11-08T05:24:12.789Z,629.20
2022-11-08T05:26:42.602Z,626.47
2022-11-08T05:29:10.288Z,627.10
2022-11-08T05:31:37.077Z,628.13
2022-11-08T05:34:04.234Z,624.47
2022-11-08T05:36:30.845Z,615.38
2022-11-08T05:38:57.396Z,611.90
2022-11-08T05:41:25.692Z,622.15
2022-11-08T05:43:54.645Z,621.35
2022-11-08T05:46:22.858Z,623.35
2022-11-08T05:48:50.298Z,611.67
2022-11-08T05:51:19.039Z,614.60
2022-11-08T05:53:47.220Z,611.10
2022-11-08T05:56:14.040Z,614.70
2022-11-08T05:58:40.846Z,618.88
2022-11-08T06:01:11.166Z,622.58
2022-11-08T06:03:38.401Z,614.47
2022-11-08T06:06:10.933Z,615.45
2022-11-08T06:08:38.498Z,612.80
2022-11-08T06:11:09.504Z,611.90
2022-11-08T06:13:36.778Z,616.22
2022-11-08T06:16:06.372Z,613.80
2022-11-08T06:18:35.607Z,612.25
2022-11-08T06:21:04.364Z,616.17
2022-11-08T06:23:31.557Z,565.88
2022-11-08T06:25:59.024Z,593.65
2022-11-08T06:28:25.925Z,613.22
2022-11-08T06:30:52.710Z,614.75
2022-11-08T06:33:20.899Z,610.47
2022-11-08T06:35:47.986Z,607.13
2022-11-08T06:38:14.714Z,616.17
2022-11-08T06:40:41.494Z,630.72
2022-11-08T06:43:16.451Z,622.13
2022-11-08T06:45:45.880Z,618.28
2022-11-08T06:48:12.641Z,620.30
2022-11-08T06:50:39.261Z,612.05
2022-11-08T06:53:07.860Z,619.60
2022-11-08T06:55:35.413Z,623.15
2022-11-08T06:58:03.599Z,614.28
2022-11-08T07:00:31.167Z,617.15
2022-11-08T07:03:01.650Z,618.60
2022-11-08T07:05:30.573Z,614.60
2022-11-08T07:08:01.512Z,607.50
2022-11-08T07:10:32.825Z,640.33
2022-11-08T07:13:01.181Z,611.47
2022-11-08T07:15:28.250Z,602.35
2022-11-08T07:17:55.167Z,605.65
2022-11-08T07:20:24.424Z,615.35
2022-11-08T07:22:54.749Z,657.90
2022-11-08T07:25:21.981Z,607.00
2022-11-08T07:27:49.250Z,614.30
2022-11-08T07:30:15.905Z,609.90
2022-11-08T07:32:42.737Z,612.63
2022-11-08T07:35:09.479Z,610.17
2022-11-08T07:37:36.131Z,658.22
2022-11-08T07:40:02.904Z,607.15
2022-11-08T07:42:43.838Z,609.92
2022-11-08T07:45:17.708Z,595.08
2022-11-08T07:47:44.283Z,610.95
2022-11-08T07:50:10.986Z,604.50
2022-11-08T07:52:37.724Z,600.22
2022-11-08T07:55:04.653Z,599.60
2022-11-08T07:57:31.248Z,608.95
2022-11-08T07:59:57.874Z,607.15
2022-11-08T08:02:24.581Z,606.47
2022-11-08T08:04:51.272Z,633.75
2022-11-08T08:07:17.955Z,610.75
2022-11-08T08:09:44.573Z,619.15
2022-11-08T08:12:11.312Z,619.33
2022-11-08T08:14:37.992Z,609.47
2022-11-08T08:17:04.696Z,604.42
2022-11-08T08:19:31.457Z,609.70
2022-11-08T08:21:58.224Z,605.92
2022-11-08T08:24:26.546Z,598.53
2022-11-08T08:26:53.388Z,596.57
2022-11-08T08:29:20.060Z,598.67
2022-11-08T08:31:46.703Z,592.38
2022-11-08T08:34:15.634Z,590.88
2022-11-08T08:36:42.442Z,584.15
2022-11-08T08:39:09.367Z,580.63
2022-11-08T08:41:35.914Z,584.67
2022-11-08T08:44:02.544Z,581.35
2022-11-08T08:46:29.183Z,578.42
2022-11-08T08:48:55.734Z,576.38
2022-11-08T08:51:22.684Z,578.05
2022-11-08T08:53:49.241Z,573.97
2022-11-08T08:56:15.948Z,576.05
2022-11-08T08:58:42.567Z,574.92
2022-11-08T09:03:59.087Z,563.42
2022-11-08T09:06:25.719Z,571.70
2022-11-08T09:08:52.317Z,565.75
2022-11-08T09:11:19.149Z,566.13
2022-11-08T09:13:45.764Z,560.08
2022-11-08T09:16:16.792Z,576.03
2022-11-08T09:18:43.541Z,558.70
2022-11-08T09:21:10.176Z,554.08
2022-11-08T09:23:36.736Z,550.85
2022-11-08T09:26:05.558Z,553.05
2022-11-08T09:28:33.929Z,557.53
2022-11-08T09:31:02.450Z,551.30
2022-11-08T09:33:29.462Z,546.35
2022-11-08T09:35:56.080Z,544.47
2022-11-08T09:38:23.084Z,548.00
2022-11-08T09:40:59.956Z,555.80
2022-11-08T09:43:29.435Z,550.10
2022-11-08T09:45:57.435Z,551.50
2022-11-08T09:48:38.862Z,551.90
2022-11-08T09:51:19.436Z,557.92
2022-11-08T09:53:53.900Z,585.10
2022-11-08T09:56:36.042Z,547.88
2022-11-08T09:59:26.984Z,550.60
2022-11-08T10:01:53.732Z,538.30
2022-11-08T10:04:29.965Z,596.60
2022-11-08T10:07:30.054Z,547.15
2022-11-08T10:09:59.583Z,549.67
2022-11-08T10:12:50.083Z,557.33
2022-11-08T10:15:35.331Z,558.38
2022-11-08T10:18:34.349Z,551.15
2022-11-08T10:21:04.984Z,552.22
2022-11-08T10:23:44.377Z,554.38
2022-11-08T10:26:27.016Z,559.42
2022-11-08T10:29:07.237Z,558.05
2022-11-08T10:31:37.392Z,558.83
2022-11-08T10:34:30.396Z,558.42
2022-11-08T10:37:05.044Z,575.10
2022-11-08T10:39:38.085Z,562.40
2022-11-08T10:42:29.871Z,562.20
2022-11-08T10:44:59.503Z,565.78
2022-11-08T10:47:29.329Z,596.50
2022-11-08T10:50:02.454Z,564.03
2022-11-08T10:52:49.200Z,568.03
2022-11-08T10:55:23.844Z,557.60
2022-11-08T10:57:50.458Z,558.77
2022-11-08T11:00:20.027Z,559.67
2022-11-08T11:02:50.825Z,556.22
2022-11-08T11:05:22.112Z,572.05
2022-11-08T11:08:03.861Z,553.95
2022-11-08T11:10:41.000Z,561.90
2022-11-08T11:16:00.806Z,552.35
2022-11-08T11:18:33.290Z,559.80
2022-11-08T11:21:08.760Z,555.22
2022-11-08T11:23:49.398Z,551.75
2022-11-08T11:26:32.064Z,553.35
2022-11-08T11:29:07.647Z,551.57
2022-11-08T11:31:41.443Z,580.58
2022-11-08T11:34:17.179Z,550.70
2022-11-08T11:36:55.179Z,543.17
2022-11-08T11:39:49.931Z,532.00
2022-11-08T11:42:44.435Z,539.60
2022-11-08T11:45:21.586Z,538.22
2022-11-08T11:47:55.122Z,554.15
2022-11-08T11:50:36.825Z,529.55
2022-11-08T11:53:07.242Z,541.03
2022-11-08T11:55:41.286Z,538.50
2022-11-08T11:58:33.288Z,603.33
2022-11-08T12:01:15.202Z,525.17
2022-11-08T12:04:00.157Z,514.55
2022-11-08T12:06:44.200Z,538.67
2022-11-08T12:09:29.119Z,513.33
2022-11-08T12:12:22.904Z,515.05
2022-11-08T12:15:08.745Z,519.47
2022-11-08T12:18:25.719Z,514.80
2022-11-08T12:21:22.784Z,519.10
2022-11-08T12:24:21.832Z,508.98
2022-11-08T12:27:05.453Z,532.97
2022-11-08T12:29:51.403Z,529.75
2022-11-08T12:32:43.891Z,520.67
2022-11-08T12:35:48.905Z,506.55
2022-11-08T12:38:30.810Z,520.20
2022-11-08T12:41:12.045Z,511.38
2022-11-08T12:43:53.840Z,510.67
2022-11-08T12:46:21.204Z,524.83
2022-11-08T12:49:31.913Z,529.10
2022-11-08T12:52:33.907Z,526.47
2022-11-08T12:55:04.724Z,528.22
2022-11-08T12:57:32.200Z,544.85
2022-11-08T13:00:08.530Z,534.53
2022-11-08T13:02:40.323Z,540.75
2022-11-08T13:05:24.708Z,544.55
2022-11-08T13:08:08.651Z,547.80
2022-11-08T13:10:40.384Z,540.72
2022-11-08T13:13:31.779Z,534.15
2022-11-08T13:16:17.499Z,534.72
2022-11-08T13:18:54.040Z,528.40
2022-11-08T13:21:38.956Z,534.92
2022-11-08T13:24:13.932Z,535.10
2022-11-08T13:26:42.695Z,530.70
2022-11-08T13:29:18.263Z,532.25
2022-11-08T13:32:08.402Z,544.77
2022-11-08T13:34:56.594Z,527.65
2022-11-08T13:37:41.693Z,522.17
2022-11-08T13:40:31.728Z,522.70
2022-11-08T13:43:20.366Z,526.80
2022-11-08T13:45:47.781Z,520.80
2022-11-08T13:48:21.392Z,515.70
2022-11-08T13:50:58.213Z,527.40
2022-11-08T13:53:43.589Z,509.35
2022-11-08T13:56:10.310Z,511.40
2022-11-08T13:58:59.352Z,513.95
2022-11-08T14:01:38.568Z,521.53
2022-11-08T14:04:27.045Z,520.08
2022-11-08T14:07:05.942Z,512.90
2022-11-08T14:09:40.149Z,523.67
2022-11-08T14:12:25.925Z,517.13
2022-11-08T14:15:07.261Z,497.27
2022-11-08T14:17:39.030Z,508.10
2022-11-08T14:20:37.655Z,513.80
2022-11-08T14:23:19.608Z,519.13
2022-11-08T14:25:51.208Z,516.05
2022-11-08T14:28:28.756Z,519.30
2022-11-08T14:30:56.850Z,521.22
2022-11-08T14:33:30.561Z,522.35
2022-11-08T14:36:08.567Z,529.78
2022-11-08T14:39:01.325Z,521.70
2022-11-08T14:41:31.889Z,540.83
2022-11-08T14:44:00.633Z,515.58
2022-11-08T14:46:37.267Z,521.95
2022-11-08T14:49:18.758Z,525.27
2022-11-08T14:51:46.452Z,524.85
2022-11-08T14:54:25.230Z,525.35
2022-11-08T14:56:54.659Z,521.28
2022-11-08T14:59:24.794Z,521.50
2022-11-08T15:01:51.668Z,505.63
2022-11-08T15:04:26.895Z,513.15
2022-11-08T15:06:56.415Z,518.53
2022-11-08T15:09:29.347Z,520.55
2022-11-08T15:12:00.714Z,528.40
2022-11-08T15:14:33.860Z,531.95
2022-11-08T15:17:03.440Z,531.47
2022-11-08T15:19:42.151Z,551.73
2022-11-08T15:22:43.986Z,538.50
2022-11-08T15:25:33.015Z,537.17
2022-11-08T15:28:35.324Z,529.85
2022-11-08T15:31:05.328Z,549.13
2022-11-08T15:33:37.637Z,541.97
2022-11-08T15:36:15.084Z,534.28
2022-11-08T15:38:49.305Z,529.72
2022-11-08T15:41:38.541Z,524.67
2022-11-08T15:44:24.540Z,527.40
2022-11-08T15:46:53.430Z,522.72
2022-11-08T15:49:24.292Z,535.50
2022-11-08T15:51:55.007Z,521.22
2022-11-08T15:54:34.314Z,517.53
2022-11-08T15:57:03.666Z,564.90
2022-11-08T15:59:35.886Z,510.15
2022-11-08T16:02:02.948Z,517.03
2022-11-08T16:04:29.964Z,514.40
2022-11-08T16:06:57.409Z,524.03
2022-11-08T16:09:27.499Z,523.10
2022-11-08T16:11:57.097Z,518.03
2022-11-08T16:14:24.885Z,514.03
2022-11-08T16:16:52.226Z,521.47
2022-11-08T16:19:22.486Z,529.90
2022-11-08T16:21:49.581Z,518.60
2022-11-08T16:24:16.708Z,511.13
2022-11-08T16:26:45.660Z,515.05
2022-11-08T16:29:21.590Z,507.65
2022-11-08T16:31:50.236Z,513.10
2022-11-08T16:34:17.399Z,506.27
2022-11-08T16:36:46.768Z,500.48
2022-11-08T16:39:22.685Z,500.10
2022-11-08T16:41:49.689Z,516.40
2022-11-08T16:44:22.751Z,504.17
2022-11-08T16:46:53.257Z,519.75
2022-11-08T16:49:27.453Z,507.20
2022-11-08T16:52:00.380Z,515.67
2022-11-08T16:54:32.926Z,521.90
2022-11-08T16:57:28.372Z,515.30
2022-11-08T16:59:52.729Z,522.60
2022-11-08T17:02:30.995Z,521.45
2022-11-08T17:05:04.402Z,514.77
2022-11-08T17:07:33.399Z,511.60
2022-11-08T17:10:10.170Z,501.75
2022-11-08T17:12:37.028Z,524.00
2022-11-08T17:15:04.147Z,519.25
2022-11-08T17:17:31.193Z,522.90
2022-11-08T17:19:57.890Z,519.43
2022-11-08T17:22:24.636Z,520.60
2022-11-08T17:24:51.254Z,512.30
2022-11-08T17:27:19.858Z,500.05
2022-11-08T17:29:46.459Z,508.08
2022-11-08T17:32:13.102Z,498.57
2022-11-08T17:34:40.064Z,505.15
2022-11-08T17:37:06.618Z,498.45
2022-11-08T17:39:33.225Z,505.05
2022-11-08T17:42:02.566Z,503.40
2022-11-08T17:44:29.571Z,515.30
2022-11-08T17:46:56.252Z,497.20
2022-11-08T17:49:23.040Z,489.00
2022-11-08T17:51:49.731Z,483.25
2022-11-08T17:54:19.510Z,495.98
2022-11-08T17:56:46.576Z,513.95
2022-11-08T17:59:16.605Z,508.55
2022-11-08T18:01:46.238Z,533.00
2022-11-08T18:04:15.649Z,518.05
2022-11-08T18:06:43.265Z,506.85
2022-11-08T18:09:13.211Z,499.10
2022-11-08T18:11:44.270Z,499.13
2022-11-08T18:14:12.279Z,486.30
2022-11-08T18:16:38.836Z,494.35
2022-11-08T18:19:15.672Z,492.90
2022-11-08T18:21:44.378Z,491.20
2022-11-08T18:24:14.237Z,499.70
2022-11-08T18:26:40.834Z,499.05
2022-11-08T18:29:07.392Z,505.95
2022-11-08T18:31:34.409Z,492.65
2022-11-08T18:34:01.399Z,484.55
2022-11-08T18:36:29.681Z,496.00
2022-11-08T18:39:01.412Z,509.33
2022-11-08T18:41:31.324Z,496.65
2022-11-08T18:43:59.525Z,519.88
2022-11-08T18:46:34.291Z,502.70
2022-11-08T18:49:05.137Z,496.77
2022-11-08T18:51:31.944Z,502.23
2022-11-08T18:53:58.900Z,498.37
2022-11-08T18:56:27.526Z,496.87
2022-11-08T18:58:54.397Z,498.55
2022-11-08T19:01:21.105Z,483.02
2022-11-08T19:03:48.003Z,489.67
2022-11-08T19:06:14.595Z,493.25
2022-11-08T19:08:41.247Z,487.98
2022-11-08T19:11:12.949Z,498.88
2022-11-08T19:13:42.246Z,501.85
2022-11-08T19:16:12.263Z,497.38
2022-11-08T19:18:38.895Z,506.30
2022-11-08T19:21:07.923Z,511.95
2022-11-08T19:23:35.041Z,522.47
2022-11-08T19:26:05.130Z,492.63
2022-11-08T19:28:36.851Z,501.33
2022-11-08T19:31:03.906Z,489.50
2022-11-08T19:33:32.078Z,487.20
2022-11-08T19:36:19.791Z,493.15
2022-11-08T19:38:46.825Z,496.85
2022-11-08T19:41:16.013Z,482.17
2022-11-08T19:43:44.003Z,475.70
2022-11-08T19:46:17.815Z,479.80
2022-11-08T19:48:46.358Z,476.95
2022-11-08T19:51:16.190Z,476.08
2022-11-08T19:53:43.386Z,471.02
2022-11-08T19:56:14.053Z,475.08
2022-11-08T19:58:41.814Z,475.45
2022-11-08T20:01:15.037Z,474.48
2022-11-08T20:03:47.667Z,470.65
2022-11-08T20:06:17.103Z,472.83
2022-11-08T20:08:55.388Z,478.73
2022-11-08T20:11:27.738Z,479.08
2022-11-08T20:13:54.562Z,473.73
2022-11-08T20:16:26.755Z,479.90
2022-11-08T20:18:55.148Z,474.05
2022-11-08T20:21:24.460Z,468.40
2022-11-08T20:23:51.327Z,484.60
2022-11-08T20:26:21.418Z,492.17
2022-11-08T20:28:56.324Z,487.83
2022-11-08T20:31:25.001Z,491.17
2022-11-08T20:33:53.340Z,475.80
2022-11-08T20:36:22.519Z,455.38
2022-11-08T20:38:52.766Z,453.38
2022-11-08T20:41:21.030Z,460.20
2022-11-08T20:43:47.679Z,459.55
2022-11-08T20:46:24.153Z,461.58
2022-11-08T20:49:00.585Z,470.98
2022-11-08T20:51:30.613Z,469.50
2022-11-08T20:54:01.954Z,473.13
2022-11-08T20:56:29.223Z,467.17
2022-11-08T20:58:58.102Z,473.13
2022-11-08T21:01:33.283Z,481.33
2022-11-08T21:04:02.086Z,479.33
2022-11-08T21:06:32.925Z,477.92
2022-11-08T21:09:16.671Z,478.27
2022-11-08T21:11:54.379Z,480.67
2022-11-08T21:14:21.146Z,478.05
2022-11-08T21:17:19.566Z,475.52
2022-11-08T21:19:36.460Z,480.63
2022-11-08T21:22:15.292Z,474.98
2022-11-08T21:24:46.445Z,481.17
2022-11-08T21:27:16.644Z,483.70
2022-11-08T21:29:43.391Z,468.35
2022-11-08T21:32:11.408Z,478.90
2022-11-08T21:34:39.607Z,481.67
2022-11-08T21:37:07.888Z,476.20
2022-11-08T21:39:35.755Z,499.98
2022-11-08T21:42:02.336Z,498.50
2022-11-08T21:44:29.004Z,495.50
2022-11-08T21:46:57.667Z,497.08
2022-11-08T21:49:27.140Z,495.67
2022-11-08T21:51:53.768Z,483.88
2022-11-08T21:54:20.413Z,488.85
2022-11-08T21:56:47.033Z,484.27
2022-11-08T21:59:14.428Z,492.50
2022-11-08T22:01:41.510Z,471.00
2022-11-08T22:04:08.591Z,474.10
2022-11-08T22:06:36.201Z,473.13
2022-11-08T22:09:03.275Z,471.50
2022-11-08T22:11:29.951Z,469.75
2022-11-08T22:13:56.564Z,466.90
2022-11-08T22:16:23.154Z,468.35
2022-11-08T22:19:04.055Z,475.45
2022-11-08T22:21:37.833Z,470.23
2022-11-08T22:24:08.523Z,463.00
2022-11-08T22:26:35.454Z,468.00
2022-11-08T22:29:03.267Z,461.05
2022-11-08T22:31:30.397Z,465.02
2022-11-08T22:33:57.056Z,460.33
2022-11-08T22:36:23.759Z,459.45
2022-11-08T22:38:50.593Z,473.95
2022-11-08T22:41:18.773Z,462.08
2022-11-08T22:43:47.342Z,470.83
2022-11-08T22:46:14.510Z,477.00
2022-11-08T22:48:42.769Z,479.83
2022-11-08T22:51:09.885Z,485.63
2022-11-08T22:53:38.021Z,482.53
2022-11-08T22:56:11.501Z,491.60
2022-11-08T22:58:39.558Z,487.15
2022-11-08T23:01:07.631Z,481.27
2022-11-08T23:03:35.535Z,492.98
2022-11-08T23:06:14.478Z,495.15
2022-11-08T23:08:41.673Z,500.10
2022-11-08T23:11:28.599Z,489.95
2022-11-08T23:14:13.852Z,489.30
2022-11-08T23:16:43.581Z,491.73
2022-11-08T23:19:35.238Z,494.73
2022-11-08T23:22:21.246Z,501.42
2022-11-08T23:24:49.155Z,499.23
2022-11-08T23:27:56.474Z,504.88
2022-11-08T23:30:45.556Z,495.92
2022-11-08T23:33:15.565Z,494.60
2022-11-08T23:36:04.528Z,488.98
2022-11-08T23:38:31.379Z,487.15
2022-11-08T23:41:24.025Z,481.47
2022-11-08T23:44:09.325Z,491.95
2022-11-08T23:46:36.546Z,489.40
2022-11-08T23:49:04.167Z,491.48
2022-11-08T23:51:30.915Z,484.10
2022-11-08T23:53:58.701Z,479.55
2022-11-08T23:56:27.740Z,492.95
2022-11-08T23:58:58.008Z,492.17
